sensor_id;sensor_type;location;lat;lon;timestamp;P1;durP1;ratioP1;P2;durP2;ratioP2
38603;SDS011;24924;50.054;8.790;2024-02-15T00:00:25;16.05;;;7.38;;
38603;SDS011;24924;50.054;8.790;2024-02-15T00:03:12;12.55;;;7.00;;
38603;SDS011;24924;50.054;8.790;2024-02-15T00:05:59;12.23;;;6.93;;
38603;SDS011;24924;50.054;8.790;2024-02-15T00:08:45;12.00;;;7.43;;
38603;SDS011;24924;50.054;8.790;2024-02-15T00:11:31;11.77;;;6.90;;
38603;SDS011;24924;50.054;8.790;2024-02-15T00:14:19;13.68;;;7.28;;
38603;SDS011;24924;50.054;8.790;2024-02-15T00:17:05;16.50;;;8.02;;
38603;SDS011;24924;50.054;8.790;2024-02-15T00:19:51;12.37;;;7.17;;
38603;SDS011;24924;50.054;8.790;2024-02-15T00:22:37;14.68;;;8.02;;
38603;SDS011;24924;50.054;8.790;2024-02-15T00:25:26;14.88;;;7.45;;
38603;SDS011;24924;50.054;8.790;2024-02-15T00:28:12;12.20;;;7.13;;
38603;SDS011;24924;50.054;8.790;2024-02-15T00:30:59;11.30;;;7.35;;
38603;SDS011;24924;50.054;8.790;2024-02-15T00:33:45;10.30;;;6.67;;
38603;SDS011;24924;50.054;8.790;2024-02-15T00:36:31;10.35;;;6.38;;
38603;SDS011;24924;50.054;8.790;2024-02-15T00:39:21;11.38;;;6.15;;
38603;SDS011;24924;50.054;8.790;2024-02-15T00:42:08;9.38;;;6.10;;
38603;SDS011;24924;50.054;8.790;2024-02-15T00:44:54;9.77;;;5.97;;
38603;SDS011;24924;50.054;8.790;2024-02-15T00:47:41;11.63;;;6.43;;
38603;SDS011;24924;50.054;8.790;2024-02-15T00:50:27;12.35;;;6.28;;
38603;SDS011;24924;50.054;8.790;2024-02-15T00:53:14;12.60;;;6.60;;
38603;SDS011;24924;50.054;8.790;2024-02-15T00:56:00;9.18;;;5.90;;
38603;SDS011;24924;50.054;8.790;2024-02-15T00:58:46;9.93;;;5.78;;
38603;SDS011;24924;50.054;8.790;2024-02-15T01:01:33;8.80;;;6.27;;
38603;SDS011;24924;50.054;8.790;2024-02-15T01:04:19;8.93;;;5.90;;
38603;SDS011;24924;50.054;8.790;2024-02-15T01:07:05;9.05;;;5.90;;
38603;SDS011;24924;50.054;8.790;2024-02-15T01:09:51;10.88;;;5.45;;
38603;SDS011;24924;50.054;8.790;2024-02-15T01:12:37;9.25;;;5.60;;
38603;SDS011;24924;50.054;8.790;2024-02-15T01:15:24;11.40;;;5.67;;
38603;SDS011;24924;50.054;8.790;2024-02-15T01:18:10;9.63;;;5.20;;
38603;SDS011;24924;50.054;8.790;2024-02-15T01:20:57;13.13;;;5.75;;
38603;SDS011;24924;50.054;8.790;2024-02-15T01:23:43;8.40;;;5.57;;
38603;SDS011;24924;50.054;8.790;2024-02-15T01:26:30;9.68;;;5.43;;
38603;SDS011;24924;50.054;8.790;2024-02-15T01:29:16;11.83;;;6.13;;
38603;SDS011;24924;50.054;8.790;2024-02-15T01:32:02;9.13;;;5.68;;
38603;SDS011;24924;50.054;8.790;2024-02-15T01:34:49;8.13;;;5.05;;
38603;SDS011;24924;50.054;8.790;2024-02-15T01:37:39;10.50;;;4.95;;
38603;SDS011;24924;50.054;8.790;2024-02-15T01:40:26;9.77;;;4.93;;
38603;SDS011;24924;50.054;8.790;2024-02-15T01:43:12;9.63;;;5.60;;
38603;SDS011;24924;50.054;8.790;2024-02-15T01:45:59;8.77;;;5.15;;
38603;SDS011;24924;50.054;8.790;2024-02-15T01:48:49;9.45;;;4.68;;
38603;SDS011;24924;50.054;8.790;2024-02-15T01:51:35;9.73;;;5.40;;
38603;SDS011;24924;50.054;8.790;2024-02-15T01:54:22;9.35;;;5.22;;
38603;SDS011;24924;50.054;8.790;2024-02-15T01:57:09;8.90;;;5.03;;
38603;SDS011;24924;50.054;8.790;2024-02-15T01:59:55;8.85;;;4.70;;
38603;SDS011;24924;50.054;8.790;2024-02-15T02:02:42;12.38;;;5.35;;
38603;SDS011;24924;50.054;8.790;2024-02-15T02:05:30;12.30;;;5.07;;
38603;SDS011;24924;50.054;8.790;2024-02-15T02:08:17;9.65;;;5.35;;
38603;SDS011;24924;50.054;8.790;2024-02-15T02:11:03;10.73;;;5.70;;
38603;SDS011;24924;50.054;8.790;2024-02-15T02:13:49;9.68;;;4.70;;
38603;SDS011;24924;50.054;8.790;2024-02-15T02:16:37;9.43;;;5.40;;
38603;SDS011;24924;50.054;8.790;2024-02-15T02:19:24;7.82;;;5.18;;
38603;SDS011;24924;50.054;8.790;2024-02-15T02:22:11;9.25;;;5.25;;
38603;SDS011;24924;50.054;8.790;2024-02-15T02:27:56;8.10;;;5.25;;
38603;SDS011;24924;50.054;8.790;2024-02-15T02:30:43;9.73;;;5.00;;
38603;SDS011;24924;50.054;8.790;2024-02-15T02:33:31;10.80;;;5.63;;
38603;SDS011;24924;50.054;8.790;2024-02-15T02:36:20;8.90;;;5.47;;
38603;SDS011;24924;50.054;8.790;2024-02-15T02:39:07;9.60;;;5.07;;
38603;SDS011;24924;50.054;8.790;2024-02-15T02:41:53;10.55;;;5.57;;
38603;SDS011;24924;50.054;8.790;2024-02-15T02:44:39;10.02;;;5.10;;
38603;SDS011;24924;50.054;8.790;2024-02-15T02:47:25;11.20;;;5.20;;
38603;SDS011;24924;50.054;8.790;2024-02-15T02:50:12;10.95;;;5.13;;
38603;SDS011;24924;50.054;8.790;2024-02-15T02:52:59;8.87;;;5.33;;
38603;SDS011;24924;50.054;8.790;2024-02-15T02:55:45;9.77;;;5.13;;
38603;SDS011;24924;50.054;8.790;2024-02-15T02:58:31;8.60;;;4.95;;
38603;SDS011;24924;50.054;8.790;2024-02-15T03:01:17;10.18;;;5.00;;
38603;SDS011;24924;50.054;8.790;2024-02-15T03:04:04;10.48;;;4.80;;
38603;SDS011;24924;50.054;8.790;2024-02-15T03:06:50;8.07;;;4.60;;
38603;SDS011;24924;50.054;8.790;2024-02-15T03:09:37;8.40;;;4.78;;
38603;SDS011;24924;50.054;8.790;2024-02-15T03:12:23;8.80;;;4.80;;
38603;SDS011;24924;50.054;8.790;2024-02-15T03:15:10;8.35;;;4.50;;
38603;SDS011;24924;50.054;8.790;2024-02-15T03:17:59;8.43;;;4.72;;
38603;SDS011;24924;50.054;8.790;2024-02-15T03:20:45;7.77;;;4.40;;
38603;SDS011;24924;50.054;8.790;2024-02-15T03:23:31;12.45;;;5.10;;
38603;SDS011;24924;50.054;8.790;2024-02-15T03:26:26;8.05;;;4.22;;
38603;SDS011;24924;50.054;8.790;2024-02-15T03:29:16;7.68;;;4.28;;
38603;SDS011;24924;50.054;8.790;2024-02-15T03:32:03;8.77;;;4.70;;
38603;SDS011;24924;50.054;8.790;2024-02-15T03:34:50;10.13;;;5.10;;
38603;SDS011;24924;50.054;8.790;2024-02-15T03:37:37;7.70;;;4.43;;
38603;SDS011;24924;50.054;8.790;2024-02-15T03:40:25;8.63;;;4.30;;
38603;SDS011;24924;50.054;8.790;2024-02-15T03:43:12;8.80;;;4.07;;
38603;SDS011;24924;50.054;8.790;2024-02-15T03:45:58;7.68;;;4.05;;
38603;SDS011;24924;50.054;8.790;2024-02-15T03:48:44;8.53;;;4.40;;
38603;SDS011;24924;50.054;8.790;2024-02-15T03:51:31;8.32;;;4.22;;
38603;SDS011;24924;50.054;8.790;2024-02-15T03:54:18;9.45;;;4.30;;
38603;SDS011;24924;50.054;8.790;2024-02-15T03:57:04;8.10;;;4.28;;
38603;SDS011;24924;50.054;8.790;2024-02-15T03:59:52;9.30;;;4.13;;
38603;SDS011;24924;50.054;8.790;2024-02-15T04:02:40;8.50;;;4.37;;
38603;SDS011;24924;50.054;8.790;2024-02-15T04:05:26;8.35;;;4.50;;
38603;SDS011;24924;50.054;8.790;2024-02-15T04:08:13;7.30;;;3.92;;
38603;SDS011;24924;50.054;8.790;2024-02-15T04:11:02;8.25;;;4.30;;
38603;SDS011;24924;50.054;8.790;2024-02-15T04:13:48;7.70;;;3.90;;
38603;SDS011;24924;50.054;8.790;2024-02-15T04:16:34;7.33;;;4.20;;
38603;SDS011;24924;50.054;8.790;2024-02-15T04:19:21;7.50;;;4.20;;
38603;SDS011;24924;50.054;8.790;2024-02-15T04:22:07;10.32;;;4.07;;
38603;SDS011;24924;50.054;8.790;2024-02-15T04:24:54;10.10;;;4.15;;
38603;SDS011;24924;50.054;8.790;2024-02-15T04:27:40;9.02;;;4.20;;
38603;SDS011;24924;50.054;8.790;2024-02-15T04:30:26;8.90;;;4.10;;
38603;SDS011;24924;50.054;8.790;2024-02-15T04:33:13;7.65;;;4.00;;
38603;SDS011;24924;50.054;8.790;2024-02-15T04:36:01;8.98;;;4.10;;
38603;SDS011;24924;50.054;8.790;2024-02-15T04:38:52;7.03;;;3.88;;
38603;SDS011;24924;50.054;8.790;2024-02-15T04:41:38;9.68;;;4.32;;
38603;SDS011;24924;50.054;8.790;2024-02-15T04:44:24;7.60;;;4.03;;
38603;SDS011;24924;50.054;8.790;2024-02-15T04:47:14;7.18;;;4.10;;
38603;SDS011;24924;50.054;8.790;2024-02-15T04:50:00;7.93;;;4.10;;
38603;SDS011;24924;50.054;8.790;2024-02-15T04:52:47;9.43;;;4.05;;
38603;SDS011;24924;50.054;8.790;2024-02-15T04:55:35;8.38;;;4.18;;
38603;SDS011;24924;50.054;8.790;2024-02-15T04:58:21;7.57;;;4.20;;
38603;SDS011;24924;50.054;8.790;2024-02-15T05:01:08;10.80;;;4.03;;
38603;SDS011;24924;50.054;8.790;2024-02-15T05:03:54;9.10;;;3.85;;
38603;SDS011;24924;50.054;8.790;2024-02-15T05:06:41;7.53;;;3.92;;
38603;SDS011;24924;50.054;8.790;2024-02-15T05:09:27;9.13;;;5.00;;
38603;SDS011;24924;50.054;8.790;2024-02-15T05:12:20;7.77;;;4.27;;
38603;SDS011;24924;50.054;8.790;2024-02-15T05:15:08;7.57;;;4.30;;
38603;SDS011;24924;50.054;8.790;2024-02-15T05:17:58;8.90;;;4.22;;
38603;SDS011;24924;50.054;8.790;2024-02-15T05:20:47;12.07;;;4.57;;
38603;SDS011;24924;50.054;8.790;2024-02-15T05:23:33;8.90;;;4.03;;
38603;SDS011;24924;50.054;8.790;2024-02-15T05:26:19;7.03;;;4.00;;
38603;SDS011;24924;50.054;8.790;2024-02-15T05:29:12;7.18;;;4.10;;
38603;SDS011;24924;50.054;8.790;2024-02-15T05:31:58;8.43;;;4.30;;
38603;SDS011;24924;50.054;8.790;2024-02-15T05:34:45;8.77;;;4.30;;
38603;SDS011;24924;50.054;8.790;2024-02-15T05:37:32;9.13;;;4.00;;
38603;SDS011;24924;50.054;8.790;2024-02-15T05:40:20;8.63;;;4.33;;
38603;SDS011;24924;50.054;8.790;2024-02-15T05:43:06;7.45;;;4.07;;
38603;SDS011;24924;50.054;8.790;2024-02-15T05:45:52;6.63;;;4.13;;
38603;SDS011;24924;50.054;8.790;2024-02-15T05:48:38;8.02;;;3.92;;
38603;SDS011;24924;50.054;8.790;2024-02-15T05:51:25;6.97;;;3.90;;
38603;SDS011;24924;50.054;8.790;2024-02-15T05:54:11;9.57;;;5.20;;
38603;SDS011;24924;50.054;8.790;2024-02-15T05:56:57;8.20;;;4.70;;
38603;SDS011;24924;50.054;8.790;2024-02-15T05:59:46;6.75;;;4.25;;
38603;SDS011;24924;50.054;8.790;2024-02-15T06:02:34;7.05;;;4.38;;
38603;SDS011;24924;50.054;8.790;2024-02-15T06:05:20;7.40;;;4.38;;
38603;SDS011;24924;50.054;8.790;2024-02-15T06:08:06;6.60;;;4.00;;
38603;SDS011;24924;50.054;8.790;2024-02-15T06:10:52;9.75;;;4.18;;
38603;SDS011;24924;50.054;8.790;2024-02-15T06:13:39;7.10;;;4.45;;
38603;SDS011;24924;50.054;8.790;2024-02-15T06:16:25;8.05;;;4.80;;
38603;SDS011;24924;50.054;8.790;2024-02-15T06:19:11;7.43;;;4.10;;
38603;SDS011;24924;50.054;8.790;2024-02-15T06:21:58;7.30;;;4.53;;
38603;SDS011;24924;50.054;8.790;2024-02-15T06:24:43;8.60;;;4.78;;
38603;SDS011;24924;50.054;8.790;2024-02-15T06:27:30;9.40;;;4.43;;
38603;SDS011;24924;50.054;8.790;2024-02-15T06:30:16;10.48;;;4.85;;
38603;SDS011;24924;50.054;8.790;2024-02-15T06:33:21;8.85;;;4.90;;
38603;SDS011;24924;50.054;8.790;2024-02-15T06:36:26;8.47;;;4.90;;
38603;SDS011;24924;50.054;8.790;2024-02-15T06:39:30;9.00;;;5.20;;
38603;SDS011;24924;50.054;8.790;2024-02-15T06:42:26;10.18;;;5.07;;
38603;SDS011;24924;50.054;8.790;2024-02-15T06:45:15;8.98;;;5.07;;
38603;SDS011;24924;50.054;8.790;2024-02-15T06:48:02;7.85;;;5.15;;
38603;SDS011;24924;50.054;8.790;2024-02-15T06:50:48;10.43;;;5.30;;
38603;SDS011;24924;50.054;8.790;2024-02-15T06:53:35;12.90;;;5.93;;
38603;SDS011;24924;50.054;8.790;2024-02-15T06:56:21;11.32;;;5.82;;
38603;SDS011;24924;50.054;8.790;2024-02-15T06:59:08;9.95;;;5.70;;
38603;SDS011;24924;50.054;8.790;2024-02-15T07:01:55;11.23;;;6.15;;
38603;SDS011;24924;50.054;8.790;2024-02-15T07:04:43;12.00;;;6.70;;
38603;SDS011;24924;50.054;8.790;2024-02-15T07:07:30;12.75;;;6.70;;
38603;SDS011;24924;50.054;8.790;2024-02-15T07:10:17;14.45;;;6.63;;
38603;SDS011;24924;50.054;8.790;2024-02-15T07:13:03;10.90;;;6.32;;
38603;SDS011;24924;50.054;8.790;2024-02-15T07:15:49;15.02;;;6.40;;
38603;SDS011;24924;50.054;8.790;2024-02-15T07:18:35;10.10;;;6.30;;
38603;SDS011;24924;50.054;8.790;2024-02-15T07:21:21;11.65;;;6.70;;
38603;SDS011;24924;50.054;8.790;2024-02-15T07:24:12;9.70;;;6.35;;
38603;SDS011;24924;50.054;8.790;2024-02-15T07:26:59;9.32;;;6.40;;
38603;SDS011;24924;50.054;8.790;2024-02-15T07:29:45;11.25;;;6.55;;
38603;SDS011;24924;50.054;8.790;2024-02-15T07:32:31;11.90;;;6.47;;
38603;SDS011;24924;50.054;8.790;2024-02-15T07:35:20;11.05;;;6.50;;
38603;SDS011;24924;50.054;8.790;2024-02-15T07:38:10;11.07;;;6.25;;
38603;SDS011;24924;50.054;8.790;2024-02-15T07:40:56;9.23;;;5.60;;
38603;SDS011;24924;50.054;8.790;2024-02-15T07:43:42;10.60;;;5.10;;
38603;SDS011;24924;50.054;8.790;2024-02-15T07:46:29;14.30;;;4.90;;
38603;SDS011;24924;50.054;8.790;2024-02-15T07:49:15;8.05;;;4.90;;
38603;SDS011;24924;50.054;8.790;2024-02-15T07:52:03;8.57;;;4.60;;
38603;SDS011;24924;50.054;8.790;2024-02-15T07:54:49;10.43;;;4.68;;
38603;SDS011;24924;50.054;8.790;2024-02-15T07:57:38;7.32;;;4.35;;
38603;SDS011;24924;50.054;8.790;2024-02-15T08:00:24;9.63;;;4.57;;
38603;SDS011;24924;50.054;8.790;2024-02-15T08:03:12;9.82;;;4.22;;
38603;SDS011;24924;50.054;8.790;2024-02-15T08:05:59;10.25;;;4.18;;
38603;SDS011;24924;50.054;8.790;2024-02-15T08:08:46;10.20;;;4.43;;
38603;SDS011;24924;50.054;8.790;2024-02-15T08:11:33;11.07;;;4.55;;
38603;SDS011;24924;50.054;8.790;2024-02-15T08:14:19;7.87;;;4.50;;
38603;SDS011;24924;50.054;8.790;2024-02-15T08:17:06;8.68;;;4.38;;
38603;SDS011;24924;50.054;8.790;2024-02-15T08:19:53;8.65;;;4.50;;
38603;SDS011;24924;50.054;8.790;2024-02-15T08:22:40;10.10;;;4.10;;
38603;SDS011;24924;50.054;8.790;2024-02-15T08:25:26;7.03;;;3.92;;
38603;SDS011;24924;50.054;8.790;2024-02-15T08:28:12;8.33;;;4.53;;
38603;SDS011;24924;50.054;8.790;2024-02-15T08:30:58;10.35;;;4.63;;
38603;SDS011;24924;50.054;8.790;2024-02-15T08:33:44;11.55;;;4.80;;
38603;SDS011;24924;50.054;8.790;2024-02-15T08:36:31;7.55;;;4.47;;
38603;SDS011;24924;50.054;8.790;2024-02-15T08:39:17;9.25;;;4.53;;
38603;SDS011;24924;50.054;8.790;2024-02-15T08:42:03;9.30;;;4.23;;
38603;SDS011;24924;50.054;8.790;2024-02-15T08:44:50;7.78;;;4.43;;
38603;SDS011;24924;50.054;8.790;2024-02-15T08:47:37;9.38;;;4.55;;
38603;SDS011;24924;50.054;8.790;2024-02-15T08:50:24;7.57;;;4.53;;
38603;SDS011;24924;50.054;8.790;2024-02-15T08:53:10;7.25;;;4.45;;
38603;SDS011;24924;50.054;8.790;2024-02-15T08:55:56;8.43;;;4.27;;
38603;SDS011;24924;50.054;8.790;2024-02-15T08:58:43;10.70;;;4.45;;
38603;SDS011;24924;50.054;8.790;2024-02-15T09:01:29;8.52;;;4.30;;
38603;SDS011;24924;50.054;8.790;2024-02-15T09:04:16;9.38;;;4.20;;
38603;SDS011;24924;50.054;8.790;2024-02-15T09:07:03;9.93;;;4.28;;
38603;SDS011;24924;50.054;8.790;2024-02-15T09:09:49;10.57;;;4.20;;
38603;SDS011;24924;50.054;8.790;2024-02-15T09:12:36;7.00;;;4.35;;
38603;SDS011;24924;50.054;8.790;2024-02-15T09:15:26;9.20;;;4.05;;
38603;SDS011;24924;50.054;8.790;2024-02-15T09:18:13;9.30;;;4.00;;
38603;SDS011;24924;50.054;8.790;2024-02-15T09:21:00;7.13;;;3.70;;
38603;SDS011;24924;50.054;8.790;2024-02-15T09:23:46;11.20;;;3.80;;
38603;SDS011;24924;50.054;8.790;2024-02-15T09:26:34;6.95;;;3.55;;
38603;SDS011;24924;50.054;8.790;2024-02-15T09:29:20;10.52;;;3.88;;
38603;SDS011;24924;50.054;8.790;2024-02-15T09:32:07;10.27;;;3.70;;
38603;SDS011;24924;50.054;8.790;2024-02-15T09:34:53;7.53;;;3.53;;
38603;SDS011;24924;50.054;8.790;2024-02-15T09:37:42;9.60;;;4.07;;
38603;SDS011;24924;50.054;8.790;2024-02-15T09:40:30;7.60;;;3.65;;
38603;SDS011;24924;50.054;8.790;2024-02-15T09:43:16;7.55;;;3.55;;
38603;SDS011;24924;50.054;8.790;2024-02-15T09:46:02;8.40;;;3.30;;
38603;SDS011;24924;50.054;8.790;2024-02-15T09:48:50;7.40;;;3.10;;
38603;SDS011;24924;50.054;8.790;2024-02-15T09:51:43;5.53;;;2.80;;
38603;SDS011;24924;50.054;8.790;2024-02-15T09:54:32;5.63;;;3.03;;
38603;SDS011;24924;50.054;8.790;2024-02-15T09:57:19;7.15;;;3.08;;
38603;SDS011;24924;50.054;8.790;2024-02-15T10:00:06;8.85;;;3.00;;
38603;SDS011;24924;50.054;8.790;2024-02-15T10:02:53;7.30;;;2.70;;
38603;SDS011;24924;50.054;8.790;2024-02-15T10:05:40;9.20;;;2.83;;
38603;SDS011;24924;50.054;8.790;2024-02-15T10:08:27;7.28;;;2.85;;
38603;SDS011;24924;50.054;8.790;2024-02-15T10:11:15;6.20;;;2.50;;
38603;SDS011;24924;50.054;8.790;2024-02-15T10:14:09;6.18;;;2.75;;
38603;SDS011;24924;50.054;8.790;2024-02-15T10:16:56;6.30;;;2.40;;
38603;SDS011;24924;50.054;8.790;2024-02-15T10:20:03;8.77;;;2.73;;
38603;SDS011;24924;50.054;8.790;2024-02-15T10:22:50;6.05;;;2.63;;
38603;SDS011;24924;50.054;8.790;2024-02-15T10:25:37;6.47;;;2.58;;
38603;SDS011;24924;50.054;8.790;2024-02-15T10:28:24;6.53;;;2.53;;
38603;SDS011;24924;50.054;8.790;2024-02-15T10:31:13;5.72;;;2.67;;
38603;SDS011;24924;50.054;8.790;2024-02-15T10:34:02;4.90;;;2.60;;
38603;SDS011;24924;50.054;8.790;2024-02-15T10:36:50;6.97;;;2.78;;
38603;SDS011;24924;50.054;8.790;2024-02-15T10:39:36;6.53;;;2.47;;
38603;SDS011;24924;50.054;8.790;2024-02-15T10:42:22;7.00;;;2.40;;
38603;SDS011;24924;50.054;8.790;2024-02-15T10:45:09;5.45;;;2.50;;
38603;SDS011;24924;50.054;8.790;2024-02-15T10:47:57;5.13;;;2.27;;
38603;SDS011;24924;50.054;8.790;2024-02-15T10:50:43;7.22;;;2.65;;
38603;SDS011;24924;50.054;8.790;2024-02-15T10:53:32;7.93;;;2.55;;
38603;SDS011;24924;50.054;8.790;2024-02-15T10:56:25;8.27;;;2.42;;
38603;SDS011;24924;50.054;8.790;2024-02-15T10:59:16;5.47;;;2.22;;
38603;SDS011;24924;50.054;8.790;2024-02-15T11:02:11;6.73;;;2.30;;
38603;SDS011;24924;50.054;8.790;2024-02-15T11:05:05;5.75;;;2.45;;
38603;SDS011;24924;50.054;8.790;2024-02-15T11:07:55;9.15;;;2.28;;
38603;SDS011;24924;50.054;8.790;2024-02-15T11:10:42;4.63;;;2.13;;
38603;SDS011;24924;50.054;8.790;2024-02-15T11:13:28;5.97;;;2.45;;
38603;SDS011;24924;50.054;8.790;2024-02-15T11:22:20;7.43;;;2.08;;
38603;SDS011;24924;50.054;8.790;2024-02-15T11:25:08;4.68;;;2.10;;
38603;SDS011;24924;50.054;8.790;2024-02-15T11:27:57;6.22;;;2.03;;
38603;SDS011;24924;50.054;8.790;2024-02-15T11:30:43;4.43;;;1.93;;
38603;SDS011;24924;50.054;8.790;2024-02-15T11:33:31;5.35;;;2.10;;
38603;SDS011;24924;50.054;8.790;2024-02-15T11:36:31;6.68;;;2.20;;
38603;SDS011;24924;50.054;8.790;2024-02-15T11:39:39;7.10;;;1.90;;
38603;SDS011;24924;50.054;8.790;2024-02-15T11:42:27;4.57;;;1.95;;
38603;SDS011;24924;50.054;8.790;2024-02-15T11:45:15;6.53;;;2.13;;
38603;SDS011;24924;50.054;8.790;2024-02-15T11:48:07;4.43;;;1.77;;
38603;SDS011;24924;50.054;8.790;2024-02-15T11:50:56;5.32;;;2.10;;
38603;SDS011;24924;50.054;8.790;2024-02-15T11:53:42;4.40;;;1.80;;
38603;SDS011;24924;50.054;8.790;2024-02-15T11:56:28;5.70;;;2.03;;
38603;SDS011;24924;50.054;8.790;2024-02-15T11:59:14;4.33;;;1.80;;
38603;SDS011;24924;50.054;8.790;2024-02-15T12:02:18;7.78;;;1.90;;
38603;SDS011;24924;50.054;8.790;2024-02-15T12:05:23;4.68;;;1.80;;
38603;SDS011;24924;50.054;8.790;2024-02-15T12:08:28;5.80;;;1.70;;
38603;SDS011;24924;50.054;8.790;2024-02-15T12:11:33;6.45;;;1.88;;
38603;SDS011;24924;50.054;8.790;2024-02-15T12:14:38;6.23;;;1.83;;
38603;SDS011;24924;50.054;8.790;2024-02-15T12:17:43;5.78;;;1.80;;
38603;SDS011;24924;50.054;8.790;2024-02-15T12:20:47;7.28;;;1.60;;
38603;SDS011;24924;50.054;8.790;2024-02-15T12:23:37;5.18;;;1.65;;
38603;SDS011;24924;50.054;8.790;2024-02-15T12:26:23;4.93;;;1.67;;
38603;SDS011;24924;50.054;8.790;2024-02-15T12:29:10;4.57;;;1.80;;
38603;SDS011;24924;50.054;8.790;2024-02-15T12:32:00;4.90;;;1.60;;
38603;SDS011;24924;50.054;8.790;2024-02-15T12:34:46;6.10;;;2.00;;
38603;SDS011;24924;50.054;8.790;2024-02-15T12:37:32;6.03;;;2.10;;
38603;SDS011;24924;50.054;8.790;2024-02-15T12:40:19;9.32;;;1.88;;
38603;SDS011;24924;50.054;8.790;2024-02-15T12:43:07;5.03;;;1.73;;
38603;SDS011;24924;50.054;8.790;2024-02-15T12:45:55;4.75;;;1.73;;
38603;SDS011;24924;50.054;8.790;2024-02-15T12:48:44;5.70;;;1.70;;
38603;SDS011;24924;50.054;8.790;2024-02-15T12:51:30;5.05;;;1.88;;
38603;SDS011;24924;50.054;8.790;2024-02-15T12:54:18;4.50;;;1.85;;
38603;SDS011;24924;50.054;8.790;2024-02-15T12:57:07;5.33;;;1.90;;
38603;SDS011;24924;50.054;8.790;2024-02-15T12:59:55;4.85;;;1.75;;
38603;SDS011;24924;50.054;8.790;2024-02-15T13:02:42;5.22;;;1.80;;
38603;SDS011;24924;50.054;8.790;2024-02-15T13:05:29;4.05;;;1.90;;
38603;SDS011;24924;50.054;8.790;2024-02-15T13:08:16;4.65;;;1.88;;
38603;SDS011;24924;50.054;8.790;2024-02-15T13:11:03;5.43;;;1.83;;
38603;SDS011;24924;50.054;8.790;2024-02-15T13:13:50;4.90;;;1.70;;
38603;SDS011;24924;50.054;8.790;2024-02-15T13:16:36;5.57;;;1.70;;
38603;SDS011;24924;50.054;8.790;2024-02-15T13:19:22;4.97;;;1.80;;
38603;SDS011;24924;50.054;8.790;2024-02-15T13:22:09;4.55;;;1.73;;
38603;SDS011;24924;50.054;8.790;2024-02-15T13:24:55;7.93;;;1.70;;
38603;SDS011;24924;50.054;8.790;2024-02-15T13:27:41;5.65;;;2.00;;
38603;SDS011;24924;50.054;8.790;2024-02-15T13:30:28;5.22;;;2.00;;
38603;SDS011;24924;50.054;8.790;2024-02-15T13:33:14;5.07;;;1.90;;
38603;SDS011;24924;50.054;8.790;2024-02-15T13:36:01;6.25;;;1.90;;
38603;SDS011;24924;50.054;8.790;2024-02-15T13:38:47;5.57;;;2.20;;
38603;SDS011;24924;50.054;8.790;2024-02-15T13:41:37;4.60;;;1.60;;
38603;SDS011;24924;50.054;8.790;2024-02-15T13:44:23;6.65;;;1.70;;
38603;SDS011;24924;50.054;8.790;2024-02-15T13:47:09;7.68;;;1.70;;
38603;SDS011;24924;50.054;8.790;2024-02-15T13:49:57;4.70;;;2.17;;
38603;SDS011;24924;50.054;8.790;2024-02-15T13:52:43;10.03;;;2.33;;
38603;SDS011;24924;50.054;8.790;2024-02-15T13:55:30;6.97;;;1.85;;
38603;SDS011;24924;50.054;8.790;2024-02-15T13:58:16;6.75;;;2.00;;
38603;SDS011;24924;50.054;8.790;2024-02-15T14:01:04;6.20;;;1.80;;
38603;SDS011;24924;50.054;8.790;2024-02-15T14:03:49;6.38;;;2.10;;
38603;SDS011;24924;50.054;8.790;2024-02-15T14:06:36;5.80;;;2.20;;
38603;SDS011;24924;50.054;8.790;2024-02-15T14:09:22;6.25;;;1.98;;
38603;SDS011;24924;50.054;8.790;2024-02-15T14:12:11;4.85;;;2.17;;
38603;SDS011;24924;50.054;8.790;2024-02-15T14:14:57;4.43;;;1.90;;
38603;SDS011;24924;50.054;8.790;2024-02-15T14:17:44;4.95;;;2.10;;
38603;SDS011;24924;50.054;8.790;2024-02-15T14:20:31;4.87;;;2.20;;
38603;SDS011;24924;50.054;8.790;2024-02-15T14:23:18;7.00;;;1.98;;
38603;SDS011;24924;50.054;8.790;2024-02-15T14:26:04;4.93;;;2.03;;
38603;SDS011;24924;50.054;8.790;2024-02-15T14:28:52;4.10;;;1.88;;
38603;SDS011;24924;50.054;8.790;2024-02-15T14:31:38;6.32;;;2.15;;
38603;SDS011;24924;50.054;8.790;2024-02-15T14:34:43;5.80;;;1.90;;
38603;SDS011;24924;50.054;8.790;2024-02-15T14:37:29;5.78;;;2.17;;
38603;SDS011;24924;50.054;8.790;2024-02-15T14:40:15;5.90;;;2.20;;
38603;SDS011;24924;50.054;8.790;2024-02-15T14:43:02;5.22;;;2.50;;
38603;SDS011;24924;50.054;8.790;2024-02-15T14:45:52;5.13;;;2.10;;
38603;SDS011;24924;50.054;8.790;2024-02-15T14:48:39;5.67;;;2.07;;
38603;SDS011;24924;50.054;8.790;2024-02-15T14:51:25;5.15;;;2.10;;
38603;SDS011;24924;50.054;8.790;2024-02-15T14:54:11;7.32;;;2.20;;
38603;SDS011;24924;50.054;8.790;2024-02-15T14:57:00;4.90;;;2.00;;
38603;SDS011;24924;50.054;8.790;2024-02-15T14:59:46;4.85;;;1.92;;
38603;SDS011;24924;50.054;8.790;2024-02-15T15:02:32;6.73;;;2.13;;
38603;SDS011;24924;50.054;8.790;2024-02-15T15:05:18;6.75;;;2.40;;
38603;SDS011;24924;50.054;8.790;2024-02-15T15:08:24;5.28;;;2.00;;
38603;SDS011;24924;50.054;8.790;2024-02-15T15:11:28;5.25;;;2.10;;
38603;SDS011;24924;50.054;8.790;2024-02-15T15:14:33;5.97;;;2.03;;
38603;SDS011;24924;50.054;8.790;2024-02-15T15:17:19;5.60;;;2.20;;
38603;SDS011;24924;50.054;8.790;2024-02-15T15:20:06;5.97;;;2.30;;
38603;SDS011;24924;50.054;8.790;2024-02-15T15:22:55;5.07;;;2.03;;
38603;SDS011;24924;50.054;8.790;2024-02-15T15:25:41;4.78;;;2.00;;
38603;SDS011;24924;50.054;8.790;2024-02-15T15:28:28;7.18;;;2.25;;
38603;SDS011;24924;50.054;8.790;2024-02-15T15:31:14;5.77;;;2.00;;
38603;SDS011;24924;50.054;8.790;2024-02-15T15:34:00;5.43;;;2.50;;
38603;SDS011;24924;50.054;8.790;2024-02-15T15:36:47;5.63;;;2.20;;
38603;SDS011;24924;50.054;8.790;2024-02-15T15:39:34;4.95;;;2.10;;
38603;SDS011;24924;50.054;8.790;2024-02-15T15:42:22;5.93;;;2.42;;
38603;SDS011;24924;50.054;8.790;2024-02-15T15:45:08;5.73;;;2.47;;
38603;SDS011;24924;50.054;8.790;2024-02-15T15:47:55;8.70;;;2.50;;
38603;SDS011;24924;50.054;8.790;2024-02-15T15:50:41;5.05;;;2.35;;
38603;SDS011;24924;50.054;8.790;2024-02-15T15:53:28;6.60;;;2.00;;
38603;SDS011;24924;50.054;8.790;2024-02-15T15:56:14;4.60;;;2.17;;
38603;SDS011;24924;50.054;8.790;2024-02-15T15:59:02;4.67;;;2.00;;
38603;SDS011;24924;50.054;8.790;2024-02-15T16:01:51;4.75;;;2.10;;
38603;SDS011;24924;50.054;8.790;2024-02-15T16:04:46;6.72;;;2.20;;
38603;SDS011;24924;50.054;8.790;2024-02-15T16:07:33;5.63;;;2.42;;
38603;SDS011;24924;50.054;8.790;2024-02-15T16:10:20;6.50;;;2.10;;
38603;SDS011;24924;50.054;8.790;2024-02-15T16:13:11;6.20;;;2.20;;
38603;SDS011;24924;50.054;8.790;2024-02-15T16:15:58;7.25;;;2.28;;
38603;SDS011;24924;50.054;8.790;2024-02-15T16:18:44;5.60;;;2.10;;
38603;SDS011;24924;50.054;8.790;2024-02-15T16:21:30;6.32;;;2.15;;
38603;SDS011;24924;50.054;8.790;2024-02-15T16:24:16;6.35;;;2.42;;
38603;SDS011;24924;50.054;8.790;2024-02-15T16:27:03;5.83;;;2.57;;
38603;SDS011;24924;50.054;8.790;2024-02-15T16:29:51;6.40;;;2.10;;
38603;SDS011;24924;50.054;8.790;2024-02-15T16:32:37;6.68;;;2.25;;
38603;SDS011;24924;50.054;8.790;2024-02-15T16:35:24;6.07;;;2.13;;
38603;SDS011;24924;50.054;8.790;2024-02-15T16:38:10;5.10;;;2.30;;
38603;SDS011;24924;50.054;8.790;2024-02-15T16:40:56;5.93;;;2.53;;
38603;SDS011;24924;50.054;8.790;2024-02-15T16:43:42;6.25;;;2.60;;
38603;SDS011;24924;50.054;8.790;2024-02-15T16:46:32;6.93;;;2.55;;
38603;SDS011;24924;50.054;8.790;2024-02-15T16:49:19;6.18;;;2.80;;
38603;SDS011;24924;50.054;8.790;2024-02-15T16:52:05;8.40;;;2.85;;
38603;SDS011;24924;50.054;8.790;2024-02-15T16:54:51;6.40;;;2.60;;
38603;SDS011;24924;50.054;8.790;2024-02-15T16:57:38;7.20;;;2.90;;